createdAt,value
2022-10-14T00:00:07.114Z,13.40
2022-10-14T00:02:39.975Z,13.40
2022-10-14T00:05:08.958Z,13.40
2022-10-14T00:07:40.565Z,13.40
2022-10-14T00:10:09.049Z,13.40
2022-10-14T00:12:40.720Z,13.40
2022-10-14T00:15:17.698Z,13.40
2022-10-14T00:17:45.129Z,13.40
2022-10-14T00:20:15.126Z,13.40
2022-10-14T00:22:50.607Z,13.30
2022-10-14T00:25:21.657Z,13.30
2022-10-14T00:27:54.242Z,13.40
2022-10-14T00:30:23.338Z,13.40
2022-10-14T00:32:51.794Z,13.40
2022-10-14T00:35:20.530Z,13.30
2022-10-14T00:38:26.580Z,13.30
2022-10-14T00:40:55.591Z,13.20
2022-10-14T00:43:26.154Z,13.20
2022-10-14T00:46:32.238Z,13.30
2022-10-14T00:49:15.603Z,13.30
2022-10-14T00:51:45.823Z,13.50
2022-10-14T00:54:19.190Z,13.50
2022-10-14T00:56:48.425Z,13.50
2022-10-14T00:59:17.498Z,13.50
2022-10-14T01:01:52.406Z,13.50
2022-10-14T01:04:20.373Z,13.60
2022-10-14T01:06:49.658Z,13.60
2022-10-14T01:09:27.449Z,13.60
2022-10-14T01:12:35.628Z,13.60
2022-10-14T01:15:33.107Z,13.60
2022-10-14T01:18:09.637Z,13.60
2022-10-14T01:20:56.638Z,13.50
2022-10-14T01:23:46.550Z,13.50
2022-10-14T01:26:21.447Z,13.50
2022-10-14T01:29:09.105Z,13.50
2022-10-14T01:31:41.047Z,13.50
2022-10-14T01:34:10.893Z,13.50
2022-10-14T01:36:42.784Z,13.50
2022-10-14T01:39:27.947Z,13.50
2022-10-14T01:42:05.389Z,13.50
2022-10-14T01:44:34.076Z,13.50
2022-10-14T01:47:34.698Z,13.50
2022-10-14T01:50:11.878Z,13.50
2022-10-14T01:52:47.692Z,13.50
2022-10-14T01:55:17.560Z,13.50
2022-10-14T01:57:45.755Z,13.60
2022-10-14T02:00:19.691Z,13.60
2022-10-14T02:02:49.343Z,13.60
2022-10-14T02:05:38.071Z,13.60
2022-10-14T02:08:30.045Z,13.50
2022-10-14T02:11:02.354Z,13.50
2022-10-14T02:14:38.446Z,13.50
2022-10-14T02:17:29.064Z,13.50
2022-10-14T02:20:13.593Z,13.50
2022-10-14T02:23:12.178Z,13.50
2022-10-14T02:25:41.825Z,13.60
2022-10-14T02:28:12.483Z,13.50
2022-10-14T02:30:43.594Z,13.60
2022-10-14T02:33:53.805Z,13.50
2022-10-14T02:36:30.144Z,13.50
2022-10-14T02:38:59.583Z,13.50
2022-10-14T02:41:36.449Z,13.50
2022-10-14T02:44:07.543Z,13.30
2022-10-14T02:46:36.429Z,13.30
2022-10-14T02:49:04.958Z,13.30
2022-10-14T02:51:33.884Z,13.30
2022-10-14T02:54:02.645Z,13.30
2022-10-14T02:56:30.805Z,13.30
2022-10-14T02:59:01.488Z,13.30
2022-10-14T03:01:33.800Z,13.30
2022-10-14T03:04:06.931Z,13.30
2022-10-14T03:07:07.009Z,13.30
2022-10-14T03:09:40.602Z,13.30
2022-10-14T03:12:12.849Z,13.30
2022-10-14T03:14:42.025Z,13.30
2022-10-14T03:17:14.651Z,13.30
2022-10-14T03:19:44.504Z,13.30
2022-10-14T03:22:16.313Z,13.30
2022-10-14T03:25:17.494Z,13.20
2022-10-14T03:27:55.857Z,13.30
2022-10-14T03:30:39.831Z,13.30
2022-10-14T03:33:25.889Z,13.20
2022-10-14T03:36:19.112Z,13.20
2022-10-14T03:38:52.025Z,13.20
2022-10-14T03:41:42.003Z,13.20
2022-10-14T03:44:45.207Z,13.20
2022-10-14T03:47:26.145Z,13.20
2022-10-14T03:49:54.435Z,13.30
2022-10-14T03:52:28.125Z,13.30
2022-10-14T03:55:11.829Z,13.20
2022-10-14T03:57:43.050Z,13.20
2022-10-14T04:00:12.782Z,13.30
2022-10-14T04:02:43.985Z,13.20
2022-10-14T04:05:33.875Z,13.20
2022-10-14T04:08:06.500Z,13.20
2022-10-14T04:10:42.589Z,13.20
2022-10-14T04:13:18.136Z,13.20
2022-10-14T04:15:47.175Z,13.20
2022-10-14T04:18:38.591Z,13.30
2022-10-14T04:21:08.477Z,13.30
2022-10-14T04:23:37.764Z,13.30
2022-10-14T04:26:18.143Z,13.30
2022-10-14T04:28:53.886Z,13.30
2022-10-14T04:31:33.450Z,13.30
2022-10-14T04:34:05.045Z,13.30
2022-10-14T04:36:37.674Z,13.30
2022-10-14T04:39:17.278Z,13.30
2022-10-14T04:41:45.229Z,13.30
2022-10-14T04:44:17.041Z,13.30
2022-10-14T04:46:50.512Z,13.40
2022-10-14T04:49:21.102Z,13.30
2022-10-14T04:52:08.399Z,13.40
2022-10-14T04:54:53.390Z,13.40
2022-10-14T04:57:35.583Z,13.40
2022-10-14T05:00:04.778Z,13.40
2022-10-14T05:02:51.284Z,13.40
2022-10-14T05:05:24.412Z,13.40
2022-10-14T05:07:56.522Z,13.40
2022-10-14T05:10:36.878Z,13.40
2022-10-14T05:13:46.628Z,13.40
2022-10-14T05:16:18.461Z,13.40
2022-10-14T05:18:46.301Z,13.40
2022-10-14T05:21:15.237Z,13.40
2022-10-14T05:23:57.475Z,13.40
2022-10-14T05:26:28.162Z,13.40
2022-10-14T05:28:58.870Z,13.40
2022-10-14T05:31:27.742Z,13.40
2022-10-14T05:34:04.490Z,13.40
2022-10-14T05:36:32.964Z,13.40
2022-10-14T05:39:02.313Z,13.40
2022-10-14T05:41:35.696Z,13.40
2022-10-14T05:44:36.203Z,13.40
2022-10-14T05:47:05.450Z,13.40
2022-10-14T05:49:34.702Z,13.40
2022-10-14T05:52:09.462Z,13.40
2022-10-14T05:54:37.836Z,13.40
2022-10-14T05:57:08.935Z,13.40
2022-10-14T05:59:38.977Z,13.40
2022-10-14T06:02:11.170Z,13.40
2022-10-14T06:04:42.749Z,13.40
2022-10-14T06:07:11.374Z,13.40
2022-10-14T06:09:48.262Z,13.40
2022-10-14T06:12:23.758Z,13.40
2022-10-14T06:14:53.199Z,13.30
2022-10-14T06:17:29.734Z,13.30
2022-10-14T06:19:58.211Z,13.40
2022-10-14T06:22:58.625Z,13.40
2022-10-14T06:25:30.852Z,13.50
2022-10-14T06:28:03.744Z,13.50
2022-10-14T06:30:31.945Z,13.50
2022-10-14T06:33:07.639Z,13.50
2022-10-14T06:35:36.267Z,13.50
2022-10-14T06:38:36.439Z,13.50
2022-10-14T06:41:10.768Z,13.40
2022-10-14T06:43:39.066Z,13.40
2022-10-14T06:46:07.482Z,13.40
2022-10-14T06:48:35.568Z,13.40
2022-10-14T06:51:04.639Z,13.50
2022-10-14T06:53:36.692Z,13.50
2022-10-14T06:56:05.561Z,13.60
2022-10-14T06:58:33.917Z,13.60
2022-10-14T07:01:06.583Z,13.60
2022-10-14T07:04:11.253Z,13.70
2022-10-14T07:10:38.618Z,14.30
2022-10-14T07:13:06.343Z,14.90
2022-10-14T07:15:37.984Z,15.00
2022-10-14T07:18:06.567Z,15.00
2022-10-14T07:20:34.935Z,15.10
2022-10-14T07:23:02.707Z,15.60
2022-10-14T07:25:30.906Z,16.70
2022-10-14T07:27:59.543Z,18.10
2022-10-14T07:30:29.602Z,17.50
2022-10-14T07:33:06.563Z,17.40
2022-10-14T07:35:35.614Z,17.30
2022-10-14T07:38:04.135Z,17.00
2022-10-14T07:40:32.360Z,17.00
2022-10-14T07:43:00.503Z,17.00
2022-10-14T07:45:30.667Z,17.20
2022-10-14T07:47:59.453Z,17.50
2022-10-14T07:50:27.322Z,17.30
2022-10-14T07:53:00.890Z,17.30
2022-10-14T07:55:31.269Z,17.50
2022-10-14T07:57:59.677Z,17.40
2022-10-14T08:00:27.727Z,17.30
2022-10-14T08:02:55.503Z,17.20
2022-10-14T08:05:37.583Z,17.30
2022-10-14T08:08:07.001Z,17.20
2022-10-14T08:10:35.213Z,17.10
2022-10-14T08:13:04.332Z,17.10
2022-10-14T08:15:39.004Z,17.20
2022-10-14T08:18:09.492Z,17.20
2022-10-14T08:20:42.374Z,17.30
2022-10-14T08:23:14.863Z,17.20
2022-10-14T08:25:45.240Z,17.10
2022-10-14T08:28:16.600Z,17.00
2022-10-14T08:30:45.042Z,16.80
2022-10-14T08:33:13.377Z,16.90
2022-10-14T08:35:41.234Z,16.70
2022-10-14T08:38:09.877Z,16.80
2022-10-14T08:40:55.610Z,16.70
2022-10-14T08:43:33.890Z,16.60
2022-10-14T08:46:19.492Z,16.60
2022-10-14T08:48:48.930Z,16.60
2022-10-14T08:51:18.419Z,16.50
2022-10-14T08:54:01.095Z,16.40
2022-10-14T08:56:29.588Z,16.30
2022-10-14T08:59:06.985Z,16.30
2022-10-14T09:01:36.654Z,16.20
2022-10-14T09:04:07.318Z,16.50
2022-10-14T09:06:38.901Z,16.80
2022-10-14T09:09:15.935Z,16.90
2022-10-14T09:11:48.960Z,16.90
2022-10-14T09:14:21.581Z,17.10
2022-10-14T09:17:00.572Z,17.10
2022-10-14T09:19:32.977Z,17.00
2022-10-14T09:22:02.307Z,17.00
2022-10-14T09:24:54.167Z,17.00
2022-10-14T09:27:23.520Z,17.00
2022-10-14T09:30:04.881Z,17.10
2022-10-14T09:32:45.464Z,17.20
2022-10-14T09:35:17.131Z,17.40
2022-10-14T09:37:49.023Z,17.20
2022-10-14T09:40:37.730Z,17.50
2022-10-14T09:43:08.809Z,17.80
2022-10-14T09:45:48.929Z,18.30
2022-10-14T09:48:40.146Z,18.90
2022-10-14T09:51:19.209Z,20.10
2022-10-14T09:53:49.949Z,20.70
2022-10-14T09:56:28.134Z,20.20
2022-10-14T09:58:57.615Z,20.80
2022-10-14T10:01:59.615Z,21.60
2022-10-14T10:09:35.489Z,21.60
2022-10-14T10:12:22.693Z,23.10
2022-10-14T10:14:57.375Z,22.50
2022-10-14T10:17:28.412Z,22.20
2022-10-14T10:20:33.110Z,21.20
2022-10-14T10:23:19.739Z,20.30
2022-10-14T10:25:50.238Z,19.80
2022-10-14T10:28:28.376Z,19.30
2022-10-14T10:31:24.200Z,19.50
2022-10-14T10:34:15.471Z,18.90
2022-10-14T10:36:48.406Z,19.20
2022-10-14T10:39:20.819Z,20.00
2022-10-14T10:41:54.992Z,20.00
2022-10-14T10:44:40.724Z,19.30
2022-10-14T10:47:15.627Z,19.60
2022-10-14T10:49:51.546Z,20.00
2022-10-14T10:53:07.361Z,20.20
2022-10-14T10:55:56.431Z,19.90
2022-10-14T10:58:41.214Z,19.70
2022-10-14T11:01:09.875Z,19.50
2022-10-14T11:04:04.731Z,19.40
2022-10-14T11:06:53.925Z,19.30
2022-10-14T11:09:48.769Z,19.70
2022-10-14T11:12:23.018Z,19.70
2022-10-14T11:15:01.931Z,20.30
2022-10-14T11:18:02.440Z,19.80
2022-10-14T11:20:57.773Z,20.10
2022-10-14T11:23:39.497Z,20.40
2022-10-14T11:29:16.872Z,19.30
2022-10-14T11:32:07.744Z,19.70
2022-10-14T11:34:58.411Z,19.50
2022-10-14T11:37:29.879Z,19.30
2022-10-14T11:39:59.275Z,19.40
2022-10-14T11:42:30.879Z,19.30
2022-10-14T11:45:10.798Z,19.10
2022-10-14T11:47:39.710Z,19.20
2022-10-14T11:50:30.021Z,19.00
2022-10-14T11:53:01.931Z,18.80
2022-10-14T11:55:33.382Z,18.80
2022-10-14T11:58:05.529Z,18.60
2022-10-14T12:00:56.051Z,18.10
2022-10-14T12:03:27.253Z,18.00
2022-10-14T12:06:17.226Z,17.60
2022-10-14T12:08:56.527Z,17.70
2022-10-14T12:11:33.692Z,17.80
2022-10-14T12:14:11.815Z,17.90
2022-10-14T12:16:42.448Z,17.90
2022-10-14T12:19:28.802Z,18.10
2022-10-14T12:22:05.580Z,18.00
2022-10-14T12:24:37.184Z,18.20
2022-10-14T12:27:10.959Z,18.40
2022-10-14T12:29:44.143Z,18.50
2022-10-14T12:32:30.712Z,18.40
2022-10-14T12:35:02.416Z,18.60
2022-10-14T12:37:43.030Z,18.40
2022-10-14T12:40:13.736Z,18.10
2022-10-14T12:42:57.823Z,17.90
2022-10-14T12:45:26.852Z,17.90
2022-10-14T12:48:05.304Z,17.70
2022-10-14T12:50:38.232Z,17.50
2022-10-14T12:53:08.378Z,17.40
2022-10-14T12:55:46.992Z,17.10
2022-10-14T12:58:19.691Z,17.10
2022-10-14T13:00:54.595Z,17.40
2022-10-14T13:03:27.995Z,17.30
2022-10-14T13:06:16.745Z,17.40
2022-10-14T13:09:07.395Z,17.10
2022-10-14T13:12:04.105Z,17.20
2022-10-14T13:14:33.013Z,17.20
2022-10-14T13:17:02.023Z,17.40
2022-10-14T13:19:33.511Z,17.40
2022-10-14T13:22:05.126Z,17.40
2022-10-14T13:24:35.459Z,18.40
2022-10-14T13:27:15.383Z,18.70
2022-10-14T13:29:55.608Z,18.60
2022-10-14T13:32:25.850Z,18.30
2022-10-14T13:35:10.613Z,18.00
2022-10-14T13:37:45.750Z,18.40
2022-10-14T13:40:19.978Z,18.00
2022-10-14T13:42:54.435Z,17.90
2022-10-14T13:45:31.544Z,17.60
2022-10-14T13:48:03.872Z,17.40
2022-10-14T13:50:44.500Z,17.20
2022-10-14T13:53:20.645Z,17.00
2022-10-14T13:55:54.543Z,17.00
2022-10-14T13:58:24.196Z,17.00
2022-10-14T14:00:58.229Z,16.80
2022-10-14T14:03:35.506Z,16.80
2022-10-14T14:06:15.950Z,16.90
2022-10-14T14:09:08.021Z,16.70
2022-10-14T14:11:37.515Z,16.60
2022-10-14T14:14:05.781Z,16.60
2022-10-14T14:16:37.065Z,16.50
2022-10-14T14:19:10.521Z,16.50
2022-10-14T14:21:48.281Z,16.50
2022-10-14T14:24:29.584Z,16.50
2022-10-14T14:26:57.475Z,16.60
2022-10-14T14:29:27.451Z,16.50
2022-10-14T14:32:11.041Z,16.60
2022-10-14T14:34:43.666Z,16.60
2022-10-14T14:37:48.135Z,16.70
2022-10-14T14:40:15.150Z,16.60
2022-10-14T14:42:44.075Z,16.60
2022-10-14T14:45:12.803Z,16.60
2022-10-14T14:47:41.602Z,16.50
2022-10-14T14:50:30.963Z,16.40
2022-10-14T14:53:03.963Z,16.50
2022-10-14T14:55:38.502Z,16.50
2022-10-14T14:58:18.473Z,16.30
2022-10-14T15:00:46.568Z,16.20
2022-10-14T15:03:14.869Z,16.20
2022-10-14T15:05:48.690Z,16.20
2022-10-14T15:08:22.233Z,16.20
2022-10-14T15:10:53.276Z,16.20
2022-10-14T15:13:25.876Z,16.30
2022-10-14T15:15:54.236Z,16.40
2022-10-14T15:18:24.965Z,16.30
2022-10-14T15:21:19.516Z,16.10
2022-10-14T15:23:50.264Z,16.20
2022-10-14T15:26:35.236Z,16.20
2022-10-14T15:29:10.843Z,16.10
2022-10-14T15:31:39.416Z,16.20
2022-10-14T15:34:19.579Z,16.20
2022-10-14T15:36:49.734Z,16.20
2022-10-14T15:39:22.005Z,16.10
2022-10-14T15:41:53.554Z,16.00
2022-10-14T15:44:27.245Z,16.00
2022-10-14T15:47:15.051Z,16.00
2022-10-14T15:49:45.680Z,16.00
2022-10-14T15:52:16.128Z,16.00
2022-10-14T15:54:45.914Z,16.00
2022-10-14T15:57:16.721Z,16.00
2022-10-14T15:59:48.272Z,16.00
2022-10-14T16:02:20.622Z,16.00
2022-10-14T16:05:18.281Z,16.00
2022-10-14T16:07:38.667Z,16.10
2022-10-14T16:10:07.487Z,16.20
2022-10-14T16:12:37.026Z,16.20
2022-10-14T16:15:16.133Z,16.30
2022-10-14T16:17:50.284Z,16.20
2022-10-14T16:20:23.003Z,16.20
2022-10-14T16:22:50.817Z,16.10
2022-10-14T16:25:29.960Z,16.00
2022-10-14T16:27:57.976Z,16.00
2022-10-14T16:30:28.003Z,15.90
2022-10-14T16:32:55.802Z,15.80
2022-10-14T16:35:23.790Z,15.90
2022-10-14T16:37:53.016Z,15.80
2022-10-14T16:40:20.932Z,15.90
2022-10-14T16:42:52.362Z,15.80
2022-10-14T16:45:20.623Z,15.90
2022-10-14T16:47:48.490Z,15.90
2022-10-14T16:50:20.381Z,15.80
2022-10-14T16:53:11.127Z,15.80
2022-10-14T16:55:44.157Z,15.80
2022-10-14T16:58:13.488Z,15.80
2022-10-14T17:00:42.401Z,15.80
2022-10-14T17:03:12.195Z,15.80
2022-10-14T17:05:40.143Z,15.90
2022-10-14T17:08:09.203Z,15.90
2022-10-14T17:10:38.516Z,15.90
2022-10-14T17:13:14.343Z,15.90
2022-10-14T17:15:42.698Z,15.90
2022-10-14T17:18:12.519Z,15.90
2022-10-14T17:20:40.455Z,15.90
2022-10-14T17:23:10.598Z,16.00
2022-10-14T17:25:40.126Z,16.00
2022-10-14T17:28:16.301Z,16.00
2022-10-14T17:30:43.930Z,16.00
2022-10-14T17:33:11.645Z,16.00
2022-10-14T17:35:40.957Z,16.00
2022-10-14T17:38:08.819Z,15.90
2022-10-14T17:40:36.313Z,15.90
2022-10-14T17:43:03.856Z,15.80
2022-10-14T17:45:31.497Z,15.90
2022-10-14T17:47:59.044Z,16.00
2022-10-14T17:50:27.988Z,15.90
2022-10-14T17:52:58.896Z,15.90
2022-10-14T17:55:28.095Z,15.80
2022-10-14T17:57:56.583Z,15.80
2022-10-14T18:00:24.709Z,15.90
2022-10-14T18:02:52.514Z,15.90
2022-10-14T18:05:20.375Z,15.90
2022-10-14T18:07:47.850Z,16.00
2022-10-14T18:10:15.474Z,16.00
2022-10-14T18:12:43.095Z,16.00
2022-10-14T18:15:18.395Z,15.90
2022-10-14T18:17:46.896Z,15.90
2022-10-14T18:20:14.353Z,15.90
2022-10-14T18:22:42.402Z,15.80
2022-10-14T18:25:09.964Z,15.90
2022-10-14T18:27:40.147Z,15.80
2022-10-14T18:30:08.309Z,15.80
2022-10-14T18:32:35.736Z,15.70
2022-10-14T18:35:05.316Z,15.80
2022-10-14T18:37:33.510Z,15.80
2022-10-14T18:40:01.088Z,15.80
2022-10-14T18:42:28.890Z,15.80
2022-10-14T18:45:00.691Z,15.80
2022-10-14T18:47:28.412Z,15.80
2022-10-14T18:49:59.686Z,15.80
2022-10-14T18:52:27.498Z,15.80
2022-10-14T18:54:59.020Z,15.80
2022-10-14T18:57:27.404Z,15.70
2022-10-14T18:59:55.024Z,15.60
2022-10-14T19:02:23.251Z,15.60
2022-10-14T19:04:51.016Z,15.60
2022-10-14T19:07:18.660Z,15.60
2022-10-14T19:09:46.305Z,15.60
2022-10-14T19:12:32.550Z,15.60
2022-10-14T19:15:00.272Z,15.50
2022-10-14T19:17:28.444Z,15.60
2022-10-14T19:19:58.617Z,15.70
2022-10-14T19:22:26.305Z,15.70
2022-10-14T19:24:54.265Z,15.80
2022-10-14T19:27:22.725Z,15.70
2022-10-14T19:29:50.419Z,15.70
2022-10-14T19:32:17.898Z,15.60
2022-10-14T19:34:47.475Z,15.60
2022-10-14T19:37:15.278Z,15.60
2022-10-14T19:39:45.011Z,15.50
2022-10-14T19:42:12.508Z,15.40
2022-10-14T19:44:40.206Z,15.30
2022-10-14T19:47:07.878Z,15.20
2022-10-14T19:49:36.047Z,15.10
2022-10-14T19:52:05.371Z,15.00
2022-10-14T19:54:32.987Z,15.00
2022-10-14T19:57:01.035Z,14.90
2022-10-14T19:59:28.444Z,14.90
2022-10-14T20:01:56.458Z,14.80
2022-10-14T20:04:26.664Z,14.80
2022-10-14T20:06:59.861Z,14.80
2022-10-14T20:09:27.680Z,14.80
2022-10-14T20:11:55.769Z,14.70
2022-10-14T20:14:24.024Z,14.70
2022-10-14T20:16:55.186Z,14.70
2022-10-14T20:19:24.081Z,14.70
2022-10-14T20:21:52.286Z,14.70
2022-10-14T20:24:20.313Z,14.60
2022-10-14T20:26:52.011Z,14.60
2022-10-14T20:29:26.128Z,14.60
2022-10-14T20:31:54.256Z,14.60
2022-10-14T20:34:21.955Z,14.50
2022-10-14T20:36:50.076Z,14.50
2022-10-14T20:39:19.440Z,14.50
2022-10-14T20:41:47.321Z,14.50
2022-10-14T20:44:23.906Z,14.50
2022-10-14T20:46:51.701Z,14.60
2022-10-14T20:49:19.617Z,14.60
2022-10-14T20:51:47.934Z,14.60
2022-10-14T20:54:15.654Z,14.60
2022-10-14T20:56:43.651Z,14.60
2022-10-14T20:59:12.252Z,14.60
2022-10-14T21:01:40.168Z,14.60
2022-10-14T21:04:14.566Z,14.60
2022-10-14T21:06:42.047Z,14.60
2022-10-14T21:09:10.744Z,14.60
2022-10-14T21:11:39.535Z,14.70
2022-10-14T21:14:11.352Z,14.80
2022-10-14T21:16:42.359Z,14.80
2022-10-14T21:19:10.099Z,14.80
2022-10-14T21:21:41.761Z,14.80
2022-10-14T21:25:08.608Z,14.80
2022-10-14T21:27:36.052Z,14.70
2022-10-14T21:30:07.610Z,14.60
2022-10-14T21:32:46.439Z,14.60
2022-10-14T21:35:14.005Z,14.60
2022-10-14T21:37:41.763Z,14.60
2022-10-14T21:40:20.694Z,14.60
2022-10-14T21:46:03.411Z,14.70
2022-10-14T21:48:31.615Z,14.70
2022-10-14T21:51:11.585Z,14.60
2022-10-14T21:53:39.871Z,14.70
2022-10-14T21:56:07.809Z,14.60
2022-10-14T21:58:39.779Z,14.60
2022-10-14T22:01:15.733Z,14.50
2022-10-14T22:03:44.074Z,14.60
2022-10-14T22:06:16.329Z,14.60
2022-10-14T22:08:45.475Z,14.60
2022-10-14T22:11:16.694Z,14.60
2022-10-14T22:13:44.216Z,14.60
2022-10-14T22:16:13.654Z,14.60
2022-10-14T22:18:50.722Z,14.70
2022-10-14T22:21:20.430Z,14.60
2022-10-14T22:23:48.630Z,14.60
2022-10-14T22:26:17.595Z,14.70
2022-10-14T22:28:45.635Z,14.70
2022-10-14T22:31:18.098Z,14.70
2022-10-14T22:33:46.195Z,14.70
2022-10-14T22:36:22.734Z,14.70
2022-10-14T22:38:57.010Z,14.70
2022-10-14T22:41:25.455Z,14.70
2022-10-14T22:43:54.511Z,14.70
2022-10-14T22:46:23.885Z,14.70
2022-10-14T22:48:56.434Z,14.80
2022-10-14T22:51:29.526Z,14.80
2022-10-14T22:53:59.117Z,14.80
2022-10-14T22:56:33.209Z,14.90
2022-10-14T22:59:02.653Z,14.90
2022-10-14T23:01:32.000Z,15.00
2022-10-14T23:04:00.229Z,15.00
2022-10-14T23:06:33.071Z,15.10
2022-10-14T23:09:02.007Z,15.10
2022-10-14T23:11:30.897Z,15.10
2022-10-14T23:14:01.564Z,15.10
2022-10-14T23:16:40.443Z,15.10
2022-10-14T23:19:13.997Z,15.10
2022-10-14T23:21:42.966Z,15.20
2022-10-14T23:24:12.003Z,15.10
2022-10-14T23:26:46.485Z,15.20
2022-10-14T23:29:14.404Z,15.20
2022-10-14T23:31:42.774Z,15.20
2022-10-14T23:34:15.782Z,15.20
2022-10-14T23:36:43.566Z,15.20
2022-10-14T23:39:13.298Z,15.20
2022-10-14T23:41:46.234Z,15.20
2022-10-14T23:44:14.298Z,15.30
2022-10-14T23:46:42.089Z,15.30
2022-10-14T23:49:25.113Z,15.30
2022-10-14T23:51:54.291Z,15.20
2022-10-14T23:54:22.654Z,15.20
2022-10-14T23:56:50.159Z,15.20
2022-10-14T23:59:18.267Z,15.20
